sensor_id;sensor_type;location;lat;lon;timestamp;pressure;altitude;pressure_sealevel;temperature;humidity
15558;BME280;7880;50.110;9.372;2024-03-02T00:00:51;2.979692359972978;;;3.062;100.0
15558;BME280;7880;50.110;9.372;2024-03-02T00:05:54;3.201534774067113;;;3.25;100.0
15558;BME280;7880;50.110;9.372;2024-03-02T00:11:03;3.428419644013047;;;3.375;100.0
15558;BME280;7880;50.110;9.372;2024-03-02T00:16:08;3.4788385840365663;;;3.437;100.0
15558;BME280;7880;50.110;9.372;2024-03-02T00:21:18;3.48892237553373;;;3.5;100.0
15558;BME280;7880;50.110;9.372;2024-03-02T00:26:22;3.1914510157483162;;;3.375;100.0
15558;BME280;7880;50.110;9.372;2024-03-02T00:31:28;2.9998598288802896;;;3.187;100.0
15558;BME280;7880;50.110;9.372;2024-03-02T00:36:38;3.0805297510756646;;;3.062;100.0
15558;BME280;7880;50.110;9.372;2024-03-02T00:41:43;3.403210184915224;;;3.312;100.0
15558;BME280;7880;50.110;9.372;2024-03-02T00:46:48;3.4990061681950464;;;3.437;100.0
15558;BME280;7880;50.110;9.372;2024-03-02T00:51:56;3.2217022941971662;;;3.25;100.0
15558;BME280;7880;50.110;9.372;2024-03-02T00:57:04;3.231786056008423;;;3.187;100.0
15558;BME280;7880;50.110;9.372;2024-03-02T01:02:20;2.979692359972978;;;3.062;100.0
15558;BME280;7880;50.110;9.372;2024-03-02T01:07:17;3.0855716236867012;;;3.125;100.0
15558;BME280;7880;50.110;9.372;2024-03-02T01:12:31;2.818352776352549;;;2.875;100.0
15558;BME280;7880;50.110;9.372;2024-03-02T01:17:30;3.0553203923860566;;;3.0;100.0
15558;BME280;7880;50.110;9.372;2024-03-02T01:22:40;2.858687644317979;;;2.937;100.0
15558;BME280;7880;50.110;9.372;2024-03-02T01:27:43;2.8082690622715747;;;2.875;100.0
15558;BME280;7880;50.110;9.372;2024-03-02T01:32:51;2.783059782162309;;;2.812;100.0
15558;BME280;7880;50.110;9.372;2024-03-02T01:38:01;2.858687644317979;;;2.875;100.0
15558;BME280;7880;50.110;9.372;2024-03-02T01:43:05;2.9191899811907205;;;2.875;100.0
15558;BME280;7880;50.110;9.372;2024-03-02T01:48:10;2.994817961216904;;;2.937;100.0
15558;BME280;7880;50.110;9.372;2024-03-02T01:53:16;2.7628923633135853;;;2.812;100.0
15558;BME280;7880;50.110;9.372;2024-03-02T01:58:26;2.8082690622715747;;;2.812;100.0
15558;BME280;7880;50.110;9.372;2024-03-02T02:03:33;2.6771808851568495;;;2.687;100.0
15558;BME280;7880;50.110;9.372;2024-03-02T02:08:45;2.4603816393762825;;;2.5;100.0
15558;BME280;7880;50.110;9.372;2024-03-02T02:13:49;2.475507150689373;;;2.5;100.0
15558;BME280;7880;50.110;9.372;2024-03-02T02:19:07;2.162913782527903;;;2.437;100.0
15558;BME280;7880;50.110;9.372;2024-03-02T02:23:59;1.8452797318110243;;;1.937;100.0
15558;BME280;7880;50.110;9.372;2024-03-02T02:29:07;2.3948377872875426;;;2.312;100.0
15558;BME280;7880;50.110;9.372;2024-03-02T02:34:14;2.2385411077179014;;;2.25;100.0
15558;BME280;7880;50.110;9.372;2024-03-02T02:39:22;2.3595449642278252;;;2.375;100.0
15558;BME280;7880;50.110;9.372;2024-03-02T02:44:26;2.5511347465449945;;;2.5;100.0
15558;BME280;7880;50.110;9.372;2024-03-02T02:49:37;2.969608627265552;;;2.937;100.0
15558;BME280;7880;50.110;9.372;2024-03-02T02:54:39;2.420046955347061;;;2.437;100.0
15558;BME280;7880;50.110;9.372;2024-03-02T02:59:49;2.2334992840013;;;2.375;100.0
15558;BME280;7880;50.110;9.372;2024-03-02T03:04:57;2.3444194729963783;;;2.375;100.0
15558;BME280;7880;50.110;9.372;2024-03-02T03:10:02;2.5763439597154503;;;2.562;100.0
15558;BME280;7880;50.110;9.372;2024-03-02T03:15:10;2.3393776431679725;;;2.437;100.0
15558;BME280;7880;50.110;9.372;2024-03-02T03:20:18;2.0973701536655427;;;2.187;100.0
15558;BME280;7880;50.110;9.372;2024-03-02T03:25:24;2.3897959545487537;;;2.312;100.0
15558;BME280;7880;50.110;9.372;2024-03-02T03:30:29;2.5360092221351804;;;2.437;100.0
15558;BME280;7880;50.110;9.372;2024-03-02T03:35:36;2.6217205617576838;;;2.625;100.0
15558;BME280;7880;50.110;9.372;2024-03-02T03:40:44;2.5763439597154503;;;2.562;100.0
15558;BME280;7880;50.110;9.372;2024-03-02T03:45:52;2.9191899811907205;;;2.812;100.0
15558;BME280;7880;50.110;9.372;2024-03-02T03:51:00;3.1107809911074584;;;3.0;100.0
15558;BME280;7880;50.110;9.372;2024-03-02T03:56:07;3.2267441749572754;;;3.187;100.0
15558;BME280;7880;50.110;9.372;2024-03-02T04:01:13;3.3527912885474507;;;3.312;100.0
15558;BME280;7880;50.110;9.372;2024-03-02T04:06:17;3.3780007330933586;;;3.375;100.0
15558;BME280;7880;50.110;9.372;2024-03-02T04:11:23;3.408252076152712;;;3.375;100.0
15558;BME280;7880;50.110;9.372;2024-03-02T04:16:34;3.5443832495773675;;;3.5;100.0
15558;BME280;7880;50.110;9.372;2024-03-02T04:21:36;3.48892237553373;;;3.5;100.0
15558;BME280;7880;50.110;9.372;2024-03-02T04:26:46;3.529257553163916;;;3.5;100.0
15558;BME280;7880;50.110;9.372;2024-03-02T04:31:58;3.6048860614246223;;;3.625;100.0
15558;BME280;7880;50.110;9.372;2024-03-02T04:36:56;3.700682265893556;;;3.687;100.0
15558;BME280;7880;50.110;9.372;2024-03-02T04:42:06;3.746059452049667;;;3.687;100.0
15558;BME280;7880;50.110;9.372;2024-03-02T04:47:18;3.725891810847679;;;3.75;100.0
15558;BME280;7880;50.110;9.372;2024-03-02T04:52:18;3.816646232927451;;;3.812;100.0
15558;BME280;7880;50.110;9.372;2024-03-02T04:56:50;3.7914366617798807;;;3.812;100.0
15558;BME280;7880;50.110;9.372;2024-03-02T05:01:55;3.7863947484234814;;;3.812;100.0
15558;BME280;7880;50.110;9.372;2024-03-02T05:06:58;3.7712690101005135;;;3.75;100.0
15558;BME280;7880;50.110;9.372;2024-03-02T05:12:29;3.7107660830020905;;;3.75;100.0
15558;BME280;7880;50.110;9.372;2024-03-02T05:17:16;3.8216881480300797;;;3.812;100.0
15558;BME280;7880;50.110;9.372;2024-03-02T05:22:23;3.877149233367527;;;3.875;100.0
15558;BME280;7880;50.110;9.372;2024-03-02T05:27:33;3.851939644757658;;;3.812;100.0
15558;BME280;7880;50.110;9.372;2024-03-02T05:32:35;3.897316909494111;;;3.937;100.0
15558;BME280;7880;50.110;9.372;2024-03-02T05:37:42;4.038490772765362;;;4.0;100.0
15558;BME280;7880;50.110;9.372;2024-03-02T05:42:55;4.073784274235368;;;4.0;100.0
15558;BME280;7880;50.110;9.372;2024-03-02T05:47:58;4.068742344580824;;;4.0;100.0
15558;BME280;7880;50.110;9.372;2024-03-02T05:53:04;4.1242035867879165;;;4.062;100.0
15558;BME280;7880;50.110;9.372;2024-03-02T05:58:53;4.154455188289285;;;4.125;100.0
15558;BME280;7880;50.110;9.372;2024-03-02T06:03:36;4.11916165422299;;;4.125;100.0
15558;BME280;7880;50.110;9.372;2024-03-02T06:08:44;4.154455188289285;;;4.125;100.0
15558;BME280;7880;50.110;9.372;2024-03-02T06:13:53;4.15949712289148;;;4.125;100.0
15558;BME280;7880;50.110;9.372;2024-03-02T06:19:22;4.139329386228928;;;4.125;100.0
15558;BME280;7880;50.110;9.372;2024-03-02T06:24:28;4.144371319958009;;;4.187;100.0
15558;BME280;7880;50.110;9.372;2024-03-02T06:29:22;4.209916484920541;;;4.187;100.0
15558;BME280;7880;50.110;9.372;2024-03-02T06:34:57;4.154455188289285;;;4.187;100.0
15558;BME280;7880;50.110;9.372;2024-03-02T06:39:40;4.225042299204506;;;4.187;100.0
15558;BME280;7880;50.110;9.372;2024-03-02T06:44:56;4.265377816767431;;;4.25;100.0
15558;BME280;7880;50.110;9.372;2024-03-02T06:50:08;4.280503640655661;;;4.312;100.0
15558;BME280;7880;50.110;9.372;2024-03-02T06:55:12;4.371258638991276;;;4.375;100.0
15558;BME280;7880;50.110;9.372;2024-03-02T07:00:11;4.411594224075088;;;4.375;100.0
15558;BME280;7880;50.110;9.372;2024-03-02T07:05:32;4.411594224075088;;;4.375;100.0
15558;BME280;7880;50.110;9.372;2024-03-02T07:10:30;4.462013731623301;;;4.437;100.0
15558;BME280;7880;50.110;9.372;2024-03-02T07:15:55;4.542685004236409;;;4.5;100.0
15558;BME280;7880;50.110;9.372;2024-03-02T07:20:42;4.6031885075906755;;;4.562;100.0
15558;BME280;7880;50.110;9.372;2024-03-02T07:25:47;4.643524199776584;;;4.625;100.0
15558;BME280;7880;50.110;9.372;2024-03-02T07:30:59;4.643524199776584;;;4.562;100.0
15558;BME280;7880;50.110;9.372;2024-03-02T07:36:02;4.688901875750162;;;4.625;100.0
15558;BME280;7880;50.110;9.372;2024-03-02T07:41:08;4.789741240092553;;;4.75;100.0
15558;BME280;7880;50.110;9.372;2024-03-02T07:46:14;5.329233816784108;;;5.375;100.0
15558;BME280;7880;50.110;9.372;2024-03-02T07:51:32;4.996462300937855;;;5.062;100.0
15558;BME280;7880;50.110;9.372;2024-03-02T07:56:33;4.961168426647783;;;4.937;100.0
15558;BME280;7880;50.110;9.372;2024-03-02T08:01:56;5.036798174731667;;;4.937;100.0
15558;BME280;7880;50.110;9.372;2024-03-02T08:06:58;5.026714204536984;;;4.937;100.0
15558;BME280;7880;50.110;9.372;2024-03-02T08:12:10;5.122511968389153;;;5.0;100.0
15558;BME280;7880;50.110;9.372;2024-03-02T08:17:12;5.208225846156711;;;5.125;100.0
15558;BME280;7880;50.110;9.372;2024-03-02T08:22:20;5.233435826213099;;;5.125;100.0
15558;BME280;7880;50.110;9.372;2024-03-02T08:27:45;5.414947897405364;;;5.312;100.0
15558;BME280;7880;50.110;9.372;2024-03-02T08:32:47;5.480494015809382;;;5.375;100.0
15558;BME280;7880;50.110;9.372;2024-03-02T08:37:49;5.596460345783271;;;5.5;100.0
15558;BME280;7880;50.110;9.372;2024-03-02T08:43:05;5.727552904188633;;;5.625;100.0
15558;BME280;7880;50.110;9.372;2024-03-02T08:48:15;5.868729725573212;;;5.75;100.0
15558;BME280;7880;50.110;9.372;2024-03-02T08:53:26;6.1359579050506;;;5.937;100.0
15558;BME280;7880;50.110;9.372;2024-03-02T08:58:40;6.4031869020545855;;;6.187;100.0
15558;BME280;7880;50.110;9.372;2024-03-02T09:03:52;6.478817898692796;;;6.312;100.0
15558;BME280;7880;50.110;9.372;2024-03-02T09:08:55;6.640164243715117;;;6.5;100.0
15558;BME280;7880;50.110;9.372;2024-03-02T09:13:44;6.746047944598831;;;6.625;100.0
15558;BME280;7880;50.110;9.372;2024-03-02T09:19:05;6.625038011209108;;;6.562;100.0
15558;BME280;7880;50.110;9.372;2024-03-02T09:23:57;6.877142228279263;;;6.75;100.0
15558;BME280;7880;50.110;9.372;2024-03-02T09:29:02;7.088910332904197;;;7.0;100.0
15558;BME280;7880;50.110;9.372;2024-03-02T09:34:08;7.134289279259974;;;7.062;100.0
15558;BME280;7880;50.110;9.372;2024-03-02T09:39:28;7.3611843646503985;;;7.25;100.0
15558;BME280;7880;50.110;9.372;2024-03-02T09:44:22;7.240173579100519;;;7.187;100.0
15558;BME280;7880;50.110;9.372;2024-03-02T09:49:31;7.265384145599091;;;7.187;100.0
15558;BME280;7880;50.110;9.372;2024-03-02T09:54:40;7.431774066970684;;;7.312;100.0
15558;BME280;7880;50.110;9.372;2024-03-02T09:59:45;7.648585652193288;;;7.5;100.0
15558;BME280;7880;50.110;9.372;2024-03-02T10:04:56;8.016662366339006;;;7.875;100.0
15558;BME280;7880;50.110;9.372;2024-03-02T10:10:13;8.082210437027971;;;8.062;100.0
15558;BME280;7880;50.110;9.372;2024-03-02T10:15:10;8.243559743656078;;;8.125;100.0
15558;BME280;7880;50.110;9.372;2024-03-02T10:20:24;8.586428009771044;;;8.437;100.0
15558;BME280;7880;50.110;9.372;2024-03-02T10:25:29;8.747778247721726;;;8.687;100.0
15558;BME280;7880;50.110;9.372;2024-03-02T10:30:33;8.843580092513003;;;8.812;100.0
15558;BME280;7880;50.110;9.372;2024-03-02T10:35:38;9.009973020019242;;;8.937;100.0
15558;BME280;7880;50.110;9.372;2024-03-02T10:40:47;9.186450713709927;;;9.187;100.0
15558;BME280;7880;50.110;9.372;2024-03-02T10:45:52;9.378055470529944;;;9.312;100.0
15558;BME280;7880;50.110;9.372;2024-03-02T10:51:02;9.428477844805457;;;9.375;100.0
15558;BME280;7880;50.110;9.372;2024-03-02T10:56:07;9.58478739001439;;;9.5;100.0
15558;BME280;7880;50.110;9.372;2024-03-02T11:01:13;9.917576385621214;;;9.812;100.0
15558;BME280;7880;50.110;9.372;2024-03-02T11:06:22;9.82681562472717;;;9.75;100.0
15558;BME280;7880;50.110;9.372;2024-03-02T11:11:44;9.846984674554552;;;9.875;100.0
15558;BME280;7880;50.110;9.372;2024-03-02T11:16:34;9.952872262545862;;;9.875;100.0
15558;BME280;7880;50.110;9.372;2024-03-02T11:21:40;10.058759978885064;;;10.0;100.0
15558;BME280;7880;50.110;9.372;2024-03-02T11:26:46;10.154563261405565;;;10.062;100.0
15558;BME280;7880;50.110;9.372;2024-03-02T11:32:00;10.11422502438072;;;10.125;100.0
15558;BME280;7880;50.110;9.372;2024-03-02T11:37:08;10.2554089354584;;;10.312;100.0
15558;BME280;7880;50.110;9.372;2024-03-02T11:42:15;10.305831816140563;;;10.312;100.0
15558;BME280;7880;50.110;9.372;2024-03-02T11:47:16;10.144478700403123;;;10.187;100.0
15558;BME280;7880;50.110;9.372;2024-03-02T11:52:20;10.694088972226018;;;10.625;100.0
15558;BME280;7880;50.110;9.372;2024-03-02T11:57:32;10.588200485799462;;;10.562;100.0
15558;BME280;7880;50.110;9.372;2024-03-02T12:02:46;10.250366648990894;;;10.312;100.0
15558;BME280;7880;50.110;9.372;2024-03-02T12:07:39;10.55290435217903;;;10.562;100.0
15558;BME280;7880;50.110;9.372;2024-03-02T12:12:55;10.719300535530783;;;10.75;100.0
15558;BME280;7880;50.110;9.372;2024-03-02T12:17:56;10.926035629078978;;;10.875;100.0
15558;BME280;7880;50.110;9.372;2024-03-02T12:23:02;10.734427477006102;;;10.75;100.0
15558;BME280;7880;50.110;9.372;2024-03-02T12:28:08;11.329422586091095;;;11.25;100.0
15558;BME280;7880;50.110;9.372;2024-03-02T12:33:16;11.53615912348032;;;11.437;100.0
15558;BME280;7880;50.110;9.372;2024-03-02T12:38:26;11.24874504567706;;;11.437;100.0
15558;BME280;7880;50.110;9.372;2024-03-02T12:43:31;11.238660358363996;;;11.375;100.0
15558;BME280;7880;50.110;9.372;2024-03-02T12:48:41;11.379846086684847;;;11.375;100.0
15558;BME280;7880;50.110;9.372;2024-03-02T12:53:45;11.26891442379565;;;11.375;100.0
15558;BME280;7880;50.110;9.372;2024-03-02T12:58:54;11.379846086684847;;;11.5;100.0
15558;BME280;7880;50.110;9.372;2024-03-02T13:03:59;11.299168499704683;;;11.437;100.0
15558;BME280;7880;50.110;9.372;2024-03-02T13:09:10;11.25882973415428;;;11.375;100.0
15558;BME280;7880;50.110;9.372;2024-03-02T13:14:11;11.465566104487516;;;11.437;100.0
15558;BME280;7880;50.110;9.372;2024-03-02T13:19:18;11.097474858217174;;;11.187;100.0
15558;BME280;7880;50.110;9.372;2024-03-02T13:24:30;11.213448645174504;;;11.25;100.0
15558;BME280;7880;50.110;9.372;2024-03-02T13:29:30;11.263872078829445;;;11.312;100.0
15558;BME280;7880;50.110;9.372;2024-03-02T13:34:41;11.152940563205629;;;11.312;100.0
15558;BME280;7880;50.110;9.372;2024-03-02T13:39:44;11.26891442379565;;;11.375;100.0
15558;BME280;7880;50.110;9.372;2024-03-02T13:44:52;11.39497314253822;;;11.437;100.0
15558;BME280;7880;50.110;9.372;2024-03-02T13:49:59;11.319337889464805;;;11.437;100.0
15558;BME280;7880;50.110;9.372;2024-03-02T13:55:05;11.349591982836136;;;11.437;100.0
15558;BME280;7880;50.110;9.372;2024-03-02T14:00:13;11.576498017087578;;;11.625;100.0
15558;BME280;7880;50.110;9.372;2024-03-02T14:05:19;11.73785377778113;;;11.812;100.0
15558;BME280;7880;50.110;9.372;2024-03-02T14:10:23;11.56137092980207;;;11.687;100.0
15558;BME280;7880;50.110;9.372;2024-03-02T14:15:31;11.722726662555942;;;11.875;100.0
15558;BME280;7880;50.110;9.372;2024-03-02T14:20:38;11.722726662555942;;;11.812;100.0
15558;BME280;7880;50.110;9.372;2024-03-02T14:25:49;11.631964026211062;;;11.75;100.0
15558;BME280;7880;50.110;9.372;2024-03-02T14:30:47;11.692472439963604;;;11.812;100.0
15558;BME280;7880;50.110;9.372;2024-03-02T14:35:57;11.53615912348032;;;11.625;100.0
15558;BME280;7880;50.110;9.372;2024-03-02T14:41:03;11.944591281708563;;;12.0;100.0
15558;BME280;7880;50.110;9.372;2024-03-02T14:46:09;11.73785377778113;;;11.875;100.0
15558;BME280;7880;50.110;9.372;2024-03-02T14:51:23;11.853828414861345;;;11.937;100.0
15558;BME280;7880;50.110;9.372;2024-03-02T14:56:29;11.964760820480297;;;12.0;100.0
15558;BME280;7880;50.110;9.372;2024-03-02T15:01:31;11.75298089562566;;;11.812;100.0
15558;BME280;7880;50.110;9.372;2024-03-02T15:06:38;11.712641920527677;;;11.812;100.0
15558;BME280;7880;50.110;9.372;2024-03-02T15:11:16;11.86895555278752;;;11.875;100.0
15558;BME280;7880;50.110;9.372;2024-03-02T15:16:28;11.939548897743226;;;12.062;100.0
15558;BME280;7880;50.110;9.372;2024-03-02T15:21:28;11.873997932678321;;;11.937;100.0
15558;BME280;7880;50.110;9.372;2024-03-02T15:26:36;11.889125074096956;;;11.937;100.0
15558;BME280;7880;50.110;9.372;2024-03-02T15:31:49;11.929464130685664;;;12.125;100.0
15558;BME280;7880;50.110;9.372;2024-03-02T15:36:51;11.73785377778113;;;11.937;100.0
15558;BME280;7880;50.110;9.372;2024-03-02T15:42:06;11.526074402988888;;;11.687;100.0
15558;BME280;7880;50.110;9.372;2024-03-02T15:47:05;11.36976138423779;;;11.5;100.0
15558;BME280;7880;50.110;9.372;2024-03-02T15:52:16;11.147898224933305;;;11.312;100.0
15558;BME280;7880;50.110;9.372;2024-03-02T15:57:20;10.931077954545618;;;11.062;100.0
15558;BME280;7880;50.110;9.372;2024-03-02T16:02:32;10.815104542445624;;;10.937;100.0
15558;BME280;7880;50.110;9.372;2024-03-02T16:07:34;10.714258222287754;;;10.875;100.0
15558;BME280;7880;50.110;9.372;2024-03-02T16:12:40;10.78989295149222;;;10.875;100.0
15558;BME280;7880;50.110;9.372;2024-03-02T16:17:50;10.865527746180305;;;11.0;100.0
15558;BME280;7880;50.110;9.372;2024-03-02T16:22:56;10.835273820447037;;;10.937;100.0
15558;BME280;7880;50.110;9.372;2024-03-02T16:28:04;10.709215909335763;;;10.875;100.0
15558;BME280;7880;50.110;9.372;2024-03-02T16:33:07;10.537777442135848;;;10.687;100.0
15558;BME280;7880;50.110;9.372;2024-03-02T16:38:15;10.38146619173349;;;10.5;100.0
15558;BME280;7880;50.110;9.372;2024-03-02T16:43:22;10.240282076928997;;;10.437;100.0
15558;BME280;7880;50.110;9.372;2024-03-02T16:48:35;10.013379513309337;;;10.187;100.0
15558;BME280;7880;50.110;9.372;2024-03-02T16:53:37;9.973041341477074;;;10.062;100.0
15558;BME280;7880;50.110;9.372;2024-03-02T16:58:44;9.947829993540655;;;10.062;100.0
15558;BME280;7880;50.110;9.372;2024-03-02T17:03:50;9.846984674554552;;;9.937;100.0
15558;BME280;7880;50.110;9.372;2024-03-02T17:08:57;9.7663085031847;;;9.875;100.0
15558;BME280;7880;50.110;9.372;2024-03-02T17:14:05;9.62008313247934;;;9.75;100.0
15558;BME280;7880;50.110;9.372;2024-03-02T17:19:12;9.554533907823497;;;9.687;100.0
15558;BME280;7880;50.110;9.372;2024-03-02T17:24:19;9.4789002481848;;;9.562;100.0
15558;BME280;7880;50.110;9.372;2024-03-02T17:29:26;9.302421963686356;;;9.437;100.0
15558;BME280;7880;50.110;9.372;2024-03-02T17:34:34;9.231830749713117;;;9.312;100.0
15558;BME280;7880;50.110;9.372;2024-03-02T17:39:45;9.246957433619537;;;9.312;100.0
15558;BME280;7880;50.110;9.372;2024-03-02T17:44:50;9.141070701280842;;;9.25;100.0
15558;BME280;7880;50.110;9.372;2024-03-02T17:49:54;9.211661841912427;;;9.312;100.0
15558;BME280;7880;50.110;9.372;2024-03-02T17:55:02;9.29737973222509;;;9.375;100.0
15558;BME280;7880;50.110;9.372;2024-03-02T18:00:15;9.166281816386618;;;9.312;100.0
15558;BME280;7880;50.110;9.372;2024-03-02T18:05:16;9.130986257275799;;;9.25;100.0
15558;BME280;7880;50.110;9.372;2024-03-02T18:10:36;8.999888591148192;;;9.125;100.0
15558;BME280;7880;50.110;9.372;2024-03-02T18:15:29;9.020057450054447;;;9.062;100.0
15558;BME280;7880;50.110;9.372;2024-03-02T18:20:37;9.080564054712886;;;9.125;100.0
15558;BME280;7880;50.110;9.372;2024-03-02T18:25:47;9.050310747144977;;;9.125;100.0
15558;BME280;7880;50.110;9.372;2024-03-02T18:30:54;9.025099665508606;;;9.125;100.0
15558;BME280;7880;50.110;9.372;2024-03-02T18:36:00;8.843580092513003;;;8.937;100.0
15558;BME280;7880;50.110;9.372;2024-03-02T18:41:07;8.899044366466114;;;9.0;100.0
15558;BME280;7880;50.110;9.372;2024-03-02T18:46:12;9.035184097290038;;;9.062;100.0
15558;BME280;7880;50.110;9.372;2024-03-02T18:51:22;8.873833328485489;;;8.937;100.0
15558;BME280;7880;50.110;9.372;2024-03-02T18:56:39;8.788115853775526;;;8.875;100.0
15558;BME280;7880;50.110;9.372;2024-03-02T19:01:34;8.667103091493482;;;8.75;100.0
15558;BME280;7880;50.110;9.372;2024-03-02T19:06:40;8.798200258199358;;;8.812;100.0
15558;BME280;7880;50.110;9.372;2024-03-02T19:11:46;8.73769384911866;;;8.812;100.0
15558;BME280;7880;50.110;9.372;2024-03-02T19:16:53;9.332675358565757;;;9.312;100.0
15558;BME280;7880;50.110;9.372;2024-03-02T19:22:02;8.823411274352111;;;8.937;100.0
15558;BME280;7880;50.110;9.372;2024-03-02T19:27:08;8.757862647488945;;;8.812;100.0
15558;BME280;7880;50.110;9.372;2024-03-02T19:32:18;8.596512390911812;;;8.687;100.0
15558;BME280;7880;50.110;9.372;2024-03-02T19:37:26;8.455331160878995;;;8.5;100.0
15558;BME280;7880;50.110;9.372;2024-03-02T19:42:32;8.485584262391786;;;8.5;100.0
15558;BME280;7880;50.110;9.372;2024-03-02T19:47:38;8.38474063142785;;;8.437;100.0
15558;BME280;7880;50.110;9.372;2024-03-02T19:52:52;8.420035889022984;;;8.437;100.0
15558;BME280;7880;50.110;9.372;2024-03-02T19:57:53;8.374656274734297;;;8.375;100.0
15558;BME280;7880;50.110;9.372;2024-03-02T20:03:00;8.278854944207705;;;8.312;100.0
15558;BME280;7880;50.110;9.372;2024-03-02T20:08:07;8.243559743656078;;;8.25;100.0
15558;BME280;7880;50.110;9.372;2024-03-02T20:13:13;8.172969385335454;;;8.187;100.0
15558;BME280;7880;50.110;9.372;2024-03-02T20:17:36;8.132632063335041;;;8.187;100.0
15558;BME280;7880;50.110;9.372;2024-03-02T20:22:43;8.001535895472625;;;8.062;100.0
15558;BME280;7880;50.110;9.372;2024-03-02T20:27:50;8.036830998235382;;;8.062;100.0
15558;BME280;7880;50.110;9.372;2024-03-02T20:32:55;8.001535895472625;;;8.062;100.0
15558;BME280;7880;50.110;9.372;2024-03-02T20:38:04;7.910777125280584;;;7.937;100.0
15558;BME280;7880;50.110;9.372;2024-03-02T20:43:13;7.941030038200552;;;7.937;100.0
15558;BME280;7880;50.110;9.372;2024-03-02T20:48:24;7.850271330872784;;;7.875;100.0
15558;BME280;7880;50.110;9.372;2024-03-02T20:53:26;7.87548207344953;;;7.937;100.0
15558;BME280;7880;50.110;9.372;2024-03-02T20:58:35;7.809934157883982;;;7.875;100.0
15558;BME280;7880;50.110;9.372;2024-03-02T21:03:42;7.784723434224725;;;7.812;100.0
15558;BME280;7880;50.110;9.372;2024-03-02T21:08:51;7.729259867785731;;;7.75;100.0
15558;BME280;7880;50.110;9.372;2024-03-02T21:13:53;7.739344149973476;;;7.812;100.0
15558;BME280;7880;50.110;9.372;2024-03-02T21:19:05;7.714133446686901;;;7.75;100.0
15558;BME280;7880;50.110;9.372;2024-03-02T21:24:08;7.603206438664347;;;7.687;100.0
15558;BME280;7880;50.110;9.372;2024-03-02T21:29:16;7.537658727407688;;;7.625;100.0
15558;BME280;7880;50.110;9.372;2024-03-02T21:34:23;7.502363826334476;;;7.562;100.0
15558;BME280;7880;50.110;9.372;2024-03-02T21:39:30;7.456984688766534;;;7.5;100.0
15558;BME280;7880;50.110;9.372;2024-03-02T21:44:36;7.467068939522141;;;7.5;100.0
15558;BME280;7880;50.110;9.372;2024-03-02T21:49:43;7.3359737705031876;;;7.375;100.0
15558;BME280;7880;50.110;9.372;2024-03-02T21:54:57;7.245215691818157;;;7.312;100.0
15558;BME280;7880;50.110;9.372;2024-03-02T21:59:55;7.063699817337328;;;7.187;100.0
15558;BME280;7880;50.110;9.372;2024-03-02T22:05:02;7.083868229208747;;;7.125;100.0
15558;BME280;7880;50.110;9.372;2024-03-02T22:10:09;7.109078750596382;;;7.187;100.0
15558;BME280;7880;50.110;9.372;2024-03-02T22:15:16;7.02336300756433;;;7.062;100.0
15558;BME280;7880;50.110;9.372;2024-03-02T22:20:23;7.05361561314785;;;7.062;100.0
15558;BME280;7880;50.110;9.372;2024-03-02T22:25:36;7.0284051077673215;;;7.062;100.0
15558;BME280;7880;50.110;9.372;2024-03-02T22:30:41;6.988068314292468;;;7.0;100.0
15558;BME280;7880;50.110;9.372;2024-03-02T22:35:44;6.97294202154153;;;7.0;100.0
15558;BME280;7880;50.110;9.372;2024-03-02T22:40:51;6.8922685044410175;;;6.937;100.0
15558;BME280;7880;50.110;9.372;2024-03-02T22:46:07;6.862015954736853;;;6.937;100.0
15558;BME280;7880;50.110;9.372;2024-03-02T22:51:20;6.957815731409937;;;6.937;100.0
15558;BME280;7880;50.110;9.372;2024-03-02T22:56:11;6.897310597077012;;;6.937;100.0
15558;BME280;7880;50.110;9.372;2024-03-02T23:01:21;6.912436876731226;;;6.937;100.0
15558;BME280;7880;50.110;9.372;2024-03-02T23:06:24;6.917478970531374;;;6.937;100.0
15558;BME280;7880;50.110;9.372;2024-03-02T23:11:31;6.8368055046536025;;;6.875;100.0
15558;BME280;7880;50.110;9.372;2024-03-02T23:16:53;6.81159506184631;;;6.875;100.0
15558;BME280;7880;50.110;9.372;2024-03-02T23:21:50;6.942689443897689;;;6.937;100.0
15558;BME280;7880;50.110;9.372;2024-03-02T23:26:53;6.801510886760662;;;6.875;100.0
15558;BME280;7880;50.110;9.372;2024-03-02T23:32:04;6.821679238096112;;;6.875;100.0
15558;BME280;7880;50.110;9.372;2024-03-02T23:37:11;6.690585037652636;;;6.75;100.0
15558;BME280;7880;50.110;9.372;2024-03-02T23:42:21;6.675458796415478;;;6.75;100.0
15558;BME280;7880;50.110;9.372;2024-03-02T23:47:22;6.675458796415478;;;6.75;100.0
15558;BME280;7880;50.110;9.372;2024-03-02T23:52:30;6.77630045413971;;;6.75;100.0
15558;BME280;7880;50.110;9.372;2024-03-02T23:57:37;6.594785554055124;;;6.687;100.0
